sensor_id;sensor_type;location;lat;lon;timestamp;P1;durP1;ratioP1;P2;durP2;ratioP2
52210;SDS011;38179;52.756;6.906;2023-09-12T00:00:01;58.58;;;52.58;;
52210;SDS011;38179;52.756;6.906;2023-09-12T00:02:30;55.75;;;49.88;;
52210;SDS011;38179;52.756;6.906;2023-09-12T00:04:56;62.35;;;53.45;;
52210;SDS011;38179;52.756;6.906;2023-09-12T00:07:22;60.20;;;53.80;;
52210;SDS011;38179;52.756;6.906;2023-09-12T00:09:48;58.38;;;52.17;;
52210;SDS011;38179;52.756;6.906;2023-09-12T00:12:15;58.97;;;52.58;;
52210;SDS011;38179;52.756;6.906;2023-09-12T00:14:42;59.92;;;53.55;;
52210;SDS011;38179;52.756;6.906;2023-09-12T00:17:08;55.53;;;49.78;;
52210;SDS011;38179;52.756;6.906;2023-09-12T00:19:34;54.97;;;49.58;;
52210;SDS011;38179;52.756;6.906;2023-09-12T00:22:00;56.10;;;50.05;;
52210;SDS011;38179;52.756;6.906;2023-09-12T00:24:26;57.03;;;50.65;;
52210;SDS011;38179;52.756;6.906;2023-09-12T00:26:52;59.33;;;52.53;;
52210;SDS011;38179;52.756;6.906;2023-09-12T00:29:18;55.67;;;50.08;;
52210;SDS011;38179;52.756;6.906;2023-09-12T00:31:44;54.88;;;49.10;;
52210;SDS011;38179;52.756;6.906;2023-09-12T00:34:10;61.10;;;52.10;;
52210;SDS011;38179;52.756;6.906;2023-09-12T00:36:40;61.05;;;54.50;;
52210;SDS011;38179;52.756;6.906;2023-09-12T00:39:06;66.40;;;55.85;;
52210;SDS011;38179;52.756;6.906;2023-09-12T00:41:32;65.03;;;56.63;;
52210;SDS011;38179;52.756;6.906;2023-09-12T00:43:58;63.80;;;55.20;;
52210;SDS011;38179;52.756;6.906;2023-09-12T00:46:24;62.20;;;55.60;;
52210;SDS011;38179;52.756;6.906;2023-09-12T00:48:51;63.92;;;56.25;;
52210;SDS011;38179;52.756;6.906;2023-09-12T00:51:18;59.78;;;53.38;;
52210;SDS011;38179;52.756;6.906;2023-09-12T00:53:46;58.15;;;52.22;;
52210;SDS011;38179;52.756;6.906;2023-09-12T00:56:13;57.85;;;51.80;;
52210;SDS011;38179;52.756;6.906;2023-09-12T00:58:39;51.72;;;46.50;;
52210;SDS011;38179;52.756;6.906;2023-09-12T01:01:06;56.33;;;50.70;;
52210;SDS011;38179;52.756;6.906;2023-09-12T01:03:32;57.90;;;51.97;;
52210;SDS011;38179;52.756;6.906;2023-09-12T01:06:03;60.70;;;54.17;;
52210;SDS011;38179;52.756;6.906;2023-09-12T01:08:30;60.97;;;54.17;;
52210;SDS011;38179;52.756;6.906;2023-09-12T01:10:56;58.92;;;52.45;;
52210;SDS011;38179;52.756;6.906;2023-09-12T01:13:24;55.72;;;49.60;;
52210;SDS011;38179;52.756;6.906;2023-09-12T01:15:50;54.85;;;48.78;;
52210;SDS011;38179;52.756;6.906;2023-09-12T01:18:16;60.28;;;52.60;;
52210;SDS011;38179;52.756;6.906;2023-09-12T01:20:42;56.92;;;51.08;;
52210;SDS011;38179;52.756;6.906;2023-09-12T01:29:13;55.70;;;49.97;;
52210;SDS011;38179;52.756;6.906;2023-09-12T01:31:42;59.42;;;51.03;;
52210;SDS011;38179;52.756;6.906;2023-09-12T01:34:09;63.03;;;53.47;;
52210;SDS011;38179;52.756;6.906;2023-09-12T01:36:37;57.45;;;51.28;;
52210;SDS011;38179;52.756;6.906;2023-09-12T01:39:03;60.20;;;53.63;;
52210;SDS011;38179;52.756;6.906;2023-09-12T01:41:30;63.38;;;54.47;;
52210;SDS011;38179;52.756;6.906;2023-09-12T01:43:59;65.65;;;53.60;;
52210;SDS011;38179;52.756;6.906;2023-09-12T01:46:27;59.50;;;52.50;;
52210;SDS011;38179;52.756;6.906;2023-09-12T01:48:55;65.70;;;55.97;;
52210;SDS011;38179;52.756;6.906;2023-09-12T01:51:23;67.55;;;54.65;;
52210;SDS011;38179;52.756;6.906;2023-09-12T01:53:50;64.65;;;55.40;;
52210;SDS011;38179;52.756;6.906;2023-09-12T01:56:18;62.80;;;54.80;;
52210;SDS011;38179;52.756;6.906;2023-09-12T02:01:28;64.82;;;55.38;;
52210;SDS011;38179;52.756;6.906;2023-09-12T02:03:55;67.30;;;55.15;;
52210;SDS011;38179;52.756;6.906;2023-09-12T02:06:20;64.38;;;53.95;;
52210;SDS011;38179;52.756;6.906;2023-09-12T02:08:46;68.88;;;56.30;;
52210;SDS011;38179;52.756;6.906;2023-09-12T02:11:12;73.20;;;56.75;;
52210;SDS011;38179;52.756;6.906;2023-09-12T02:13:38;64.35;;;57.38;;
52210;SDS011;38179;52.756;6.906;2023-09-12T02:16:04;63.22;;;54.42;;
52210;SDS011;38179;52.756;6.906;2023-09-12T02:18:30;55.28;;;49.38;;
52210;SDS011;38179;52.756;6.906;2023-09-12T02:20:57;55.10;;;49.22;;
52210;SDS011;38179;52.756;6.906;2023-09-12T02:23:24;64.10;;;55.20;;
52210;SDS011;38179;52.756;6.906;2023-09-12T02:25:50;59.13;;;50.22;;
52210;SDS011;38179;52.756;6.906;2023-09-12T02:28:16;85.10;;;52.28;;
52210;SDS011;38179;52.756;6.906;2023-09-12T02:30:42;55.75;;;48.83;;
52210;SDS011;38179;52.756;6.906;2023-09-12T02:33:07;57.25;;;50.70;;
52210;SDS011;38179;52.756;6.906;2023-09-12T02:35:33;52.55;;;47.38;;
52210;SDS011;38179;52.756;6.906;2023-09-12T02:37:59;51.75;;;46.42;;
52210;SDS011;38179;52.756;6.906;2023-09-12T02:40:25;53.00;;;47.50;;
52210;SDS011;38179;52.756;6.906;2023-09-12T02:42:51;51.08;;;45.67;;
52210;SDS011;38179;52.756;6.906;2023-09-12T02:45:17;50.80;;;45.70;;
52210;SDS011;38179;52.756;6.906;2023-09-12T02:47:43;52.30;;;46.65;;
52210;SDS011;38179;52.756;6.906;2023-09-12T02:50:10;48.65;;;43.83;;
52210;SDS011;38179;52.756;6.906;2023-09-12T02:52:36;48.38;;;43.40;;
52210;SDS011;38179;52.756;6.906;2023-09-12T02:55:02;49.78;;;44.58;;
52210;SDS011;38179;52.756;6.906;2023-09-12T02:57:28;51.22;;;46.00;;
52210;SDS011;38179;52.756;6.906;2023-09-12T02:59:54;51.40;;;46.05;;
52210;SDS011;38179;52.756;6.906;2023-09-12T03:02:20;51.45;;;46.20;;
52210;SDS011;38179;52.756;6.906;2023-09-12T03:04:46;51.95;;;46.42;;
52210;SDS011;38179;52.756;6.906;2023-09-12T03:07:12;53.03;;;47.65;;
52210;SDS011;38179;52.756;6.906;2023-09-12T03:09:38;53.88;;;48.25;;
52210;SDS011;38179;52.756;6.906;2023-09-12T03:12:07;55.45;;;49.58;;
52210;SDS011;38179;52.756;6.906;2023-09-12T03:14:33;59.47;;;52.00;;
52210;SDS011;38179;52.756;6.906;2023-09-12T03:16:58;56.42;;;50.30;;
52210;SDS011;38179;52.756;6.906;2023-09-12T03:19:24;51.97;;;46.67;;
52210;SDS011;38179;52.756;6.906;2023-09-12T03:21:50;52.60;;;46.70;;
52210;SDS011;38179;52.756;6.906;2023-09-12T03:24:17;51.95;;;46.63;;
52210;SDS011;38179;52.756;6.906;2023-09-12T03:26:44;54.55;;;48.95;;
52210;SDS011;38179;52.756;6.906;2023-09-12T03:29:10;56.95;;;49.55;;
52210;SDS011;38179;52.756;6.906;2023-09-12T03:31:36;70.68;;;55.13;;
52210;SDS011;38179;52.756;6.906;2023-09-12T03:34:01;289.30;;;63.60;;
52210;SDS011;38179;52.756;6.906;2023-09-12T03:36:27;61.22;;;53.42;;
52210;SDS011;38179;52.756;6.906;2023-09-12T03:38:53;163.20;;;57.30;;
52210;SDS011;38179;52.756;6.906;2023-09-12T03:41:19;56.85;;;50.47;;
52210;SDS011;38179;52.756;6.906;2023-09-12T03:43:50;64.05;;;52.92;;
52210;SDS011;38179;52.756;6.906;2023-09-12T03:46:20;152.48;;;53.42;;
52210;SDS011;38179;52.756;6.906;2023-09-12T03:48:46;131.43;;;56.85;;
52210;SDS011;38179;52.756;6.906;2023-09-12T03:51:12;127.82;;;52.90;;
52210;SDS011;38179;52.756;6.906;2023-09-12T03:53:38;99.57;;;54.70;;
52210;SDS011;38179;52.756;6.906;2023-09-12T03:56:04;212.25;;;57.05;;
52210;SDS011;38179;52.756;6.906;2023-09-12T03:58:30;170.38;;;61.20;;
52210;SDS011;38179;52.756;6.906;2023-09-12T04:00:56;53.22;;;47.70;;
52210;SDS011;38179;52.756;6.906;2023-09-12T04:03:22;75.13;;;50.85;;
52210;SDS011;38179;52.756;6.906;2023-09-12T04:05:48;122.22;;;54.72;;
52210;SDS011;38179;52.756;6.906;2023-09-12T04:08:15;125.30;;;54.90;;
52210;SDS011;38179;52.756;6.906;2023-09-12T04:10:42;48.08;;;43.33;;
52210;SDS011;38179;52.756;6.906;2023-09-12T04:18:25;47.15;;;42.85;;
52210;SDS011;38179;52.756;6.906;2023-09-12T04:20:51;67.20;;;43.55;;
52210;SDS011;38179;52.756;6.906;2023-09-12T04:23:17;91.00;;;46.78;;
52210;SDS011;38179;52.756;6.906;2023-09-12T04:25:45;106.78;;;45.67;;
52210;SDS011;38179;52.756;6.906;2023-09-12T04:28:11;125.82;;;49.65;;
52210;SDS011;38179;52.756;6.906;2023-09-12T04:30:37;70.63;;;46.13;;
52210;SDS011;38179;52.756;6.906;2023-09-12T04:33:05;220.20;;;52.58;;
52210;SDS011;38179;52.756;6.906;2023-09-12T04:35:33;176.57;;;48.97;;
52210;SDS011;38179;52.756;6.906;2023-09-12T04:38:00;125.00;;;49.00;;
52210;SDS011;38179;52.756;6.906;2023-09-12T04:40:26;97.90;;;45.42;;
52210;SDS011;38179;52.756;6.906;2023-09-12T04:42:53;254.70;;;52.72;;
52210;SDS011;38179;52.756;6.906;2023-09-12T04:45:24;201.35;;;49.67;;
52210;SDS011;38179;52.756;6.906;2023-09-12T04:47:50;117.85;;;47.95;;
52210;SDS011;38179;52.756;6.906;2023-09-12T04:50:16;145.13;;;51.05;;
52210;SDS011;38179;52.756;6.906;2023-09-12T04:52:42;154.55;;;50.25;;
52210;SDS011;38179;52.756;6.906;2023-09-12T04:55:08;91.32;;;48.33;;
52210;SDS011;38179;52.756;6.906;2023-09-12T04:57:34;168.90;;;52.40;;
52210;SDS011;38179;52.756;6.906;2023-09-12T05:00:00;200.77;;;53.35;;
52210;SDS011;38179;52.756;6.906;2023-09-12T05:02:26;85.60;;;47.50;;
52210;SDS011;38179;52.756;6.906;2023-09-12T05:04:51;164.25;;;52.95;;
52210;SDS011;38179;52.756;6.906;2023-09-12T05:07:26;91.68;;;49.55;;
52210;SDS011;38179;52.756;6.906;2023-09-12T05:09:58;117.28;;;49.92;;
52210;SDS011;38179;52.756;6.906;2023-09-12T05:12:28;99.28;;;49.45;;
52210;SDS011;38179;52.756;6.906;2023-09-12T05:14:54;48.40;;;43.60;;
52210;SDS011;38179;52.756;6.906;2023-09-12T05:17:20;52.60;;;45.15;;
52210;SDS011;38179;52.756;6.906;2023-09-12T05:19:46;109.85;;;49.17;;
52210;SDS011;38179;52.756;6.906;2023-09-12T05:22:12;113.05;;;50.25;;
52210;SDS011;38179;52.756;6.906;2023-09-12T05:24:37;74.53;;;46.22;;
52210;SDS011;38179;52.756;6.906;2023-09-12T05:27:03;72.80;;;45.80;;
52210;SDS011;38179;52.756;6.906;2023-09-12T05:29:30;78.55;;;49.55;;
52210;SDS011;38179;52.756;6.906;2023-09-12T05:31:56;65.70;;;48.05;;
52210;SDS011;38179;52.756;6.906;2023-09-12T05:34:22;79.75;;;47.70;;
52210;SDS011;38179;52.756;6.906;2023-09-12T05:36:48;101.95;;;50.40;;
52210;SDS011;38179;52.756;6.906;2023-09-12T05:39:14;85.63;;;49.28;;
52210;SDS011;38179;52.756;6.906;2023-09-12T05:41:40;67.43;;;49.53;;
52210;SDS011;38179;52.756;6.906;2023-09-12T05:44:06;69.05;;;49.70;;
52210;SDS011;38179;52.756;6.906;2023-09-12T05:46:31;52.38;;;46.92;;
52210;SDS011;38179;52.756;6.906;2023-09-12T05:48:57;54.20;;;46.83;;
52210;SDS011;38179;52.756;6.906;2023-09-12T05:51:23;74.63;;;52.58;;
52210;SDS011;38179;52.756;6.906;2023-09-12T05:53:49;57.20;;;48.88;;
52210;SDS011;38179;52.756;6.906;2023-09-12T05:56:15;70.72;;;50.90;;
52210;SDS011;38179;52.756;6.906;2023-09-12T05:58:41;73.10;;;50.70;;
52210;SDS011;38179;52.756;6.906;2023-09-12T06:01:08;80.07;;;51.53;;
52210;SDS011;38179;52.756;6.906;2023-09-12T06:03:34;69.78;;;50.58;;
52210;SDS011;38179;52.756;6.906;2023-09-12T06:06:00;60.35;;;49.92;;
52210;SDS011;38179;52.756;6.906;2023-09-12T06:08:25;60.17;;;49.97;;
52210;SDS011;38179;52.756;6.906;2023-09-12T06:10:51;55.15;;;47.88;;
52210;SDS011;38179;52.756;6.906;2023-09-12T06:13:19;70.03;;;50.90;;
52210;SDS011;38179;52.756;6.906;2023-09-12T06:15:46;55.08;;;49.03;;
52210;SDS011;38179;52.756;6.906;2023-09-12T06:18:12;54.55;;;47.88;;
52210;SDS011;38179;52.756;6.906;2023-09-12T06:20:38;63.15;;;50.28;;
52210;SDS011;38179;52.756;6.906;2023-09-12T06:23:04;61.47;;;50.13;;
52210;SDS011;38179;52.756;6.906;2023-09-12T06:25:30;59.75;;;50.35;;
52210;SDS011;38179;52.756;6.906;2023-09-12T06:27:56;61.03;;;50.50;;
52210;SDS011;38179;52.756;6.906;2023-09-12T06:30:22;65.88;;;51.10;;
52210;SDS011;38179;52.756;6.906;2023-09-12T06:32:48;68.85;;;53.95;;
52210;SDS011;38179;52.756;6.906;2023-09-12T06:35:14;74.88;;;54.15;;
52210;SDS011;38179;52.756;6.906;2023-09-12T06:37:40;74.32;;;55.28;;
52210;SDS011;38179;52.756;6.906;2023-09-12T06:40:06;75.97;;;55.13;;
52210;SDS011;38179;52.756;6.906;2023-09-12T06:42:32;76.63;;;55.83;;
52210;SDS011;38179;52.756;6.906;2023-09-12T06:44:58;74.18;;;56.67;;
52210;SDS011;38179;52.756;6.906;2023-09-12T06:47:24;68.43;;;54.03;;
52210;SDS011;38179;52.756;6.906;2023-09-12T06:49:50;59.42;;;50.40;;
52210;SDS011;38179;52.756;6.906;2023-09-12T06:52:16;75.10;;;56.90;;
52210;SDS011;38179;52.756;6.906;2023-09-12T06:54:42;60.85;;;51.70;;
52210;SDS011;38179;52.756;6.906;2023-09-12T06:57:08;77.72;;;55.28;;
52210;SDS011;38179;52.756;6.906;2023-09-12T06:59:33;68.70;;;53.70;;
52210;SDS011;38179;52.756;6.906;2023-09-12T07:01:59;73.43;;;53.78;;
52210;SDS011;38179;52.756;6.906;2023-09-12T07:04:25;73.78;;;54.75;;
52210;SDS011;38179;52.756;6.906;2023-09-12T07:06:52;65.45;;;53.28;;
52210;SDS011;38179;52.756;6.906;2023-09-12T07:09:19;68.03;;;53.58;;
52210;SDS011;38179;52.756;6.906;2023-09-12T07:11:45;73.05;;;54.63;;
52210;SDS011;38179;52.756;6.906;2023-09-12T07:14:12;74.85;;;55.85;;
52210;SDS011;38179;52.756;6.906;2023-09-12T07:16:39;70.53;;;54.42;;
52210;SDS011;38179;52.756;6.906;2023-09-12T07:19:05;69.03;;;52.90;;
52210;SDS011;38179;52.756;6.906;2023-09-12T07:21:32;63.95;;;49.40;;
52210;SDS011;38179;52.756;6.906;2023-09-12T07:23:58;61.25;;;50.88;;
52210;SDS011;38179;52.756;6.906;2023-09-12T07:26:23;61.47;;;49.53;;
52210;SDS011;38179;52.756;6.906;2023-09-12T07:28:49;57.22;;;48.15;;
52210;SDS011;38179;52.756;6.906;2023-09-12T07:31:15;57.92;;;47.53;;
52210;SDS011;38179;52.756;6.906;2023-09-12T07:33:41;57.35;;;47.50;;
52210;SDS011;38179;52.756;6.906;2023-09-12T07:36:07;63.10;;;50.10;;
52210;SDS011;38179;52.756;6.906;2023-09-12T07:38:33;60.70;;;47.63;;
52210;SDS011;38179;52.756;6.906;2023-09-12T07:41:00;58.78;;;49.15;;
52210;SDS011;38179;52.756;6.906;2023-09-12T07:43:28;64.65;;;50.58;;
52210;SDS011;38179;52.756;6.906;2023-09-12T07:45:57;60.75;;;50.15;;
52210;SDS011;38179;52.756;6.906;2023-09-12T07:48:23;65.63;;;51.05;;
52210;SDS011;38179;52.756;6.906;2023-09-12T07:50:49;64.60;;;50.80;;
52210;SDS011;38179;52.756;6.906;2023-09-12T07:53:16;65.15;;;50.20;;
52210;SDS011;38179;52.756;6.906;2023-09-12T07:55:42;64.35;;;48.55;;
52210;SDS011;38179;52.756;6.906;2023-09-12T07:58:12;58.80;;;47.55;;
52210;SDS011;38179;52.756;6.906;2023-09-12T08:00:43;66.85;;;49.55;;
52210;SDS011;38179;52.756;6.906;2023-09-12T08:03:09;62.35;;;48.70;;
52210;SDS011;38179;52.756;6.906;2023-09-12T08:05:35;60.92;;;49.50;;
52210;SDS011;38179;52.756;6.906;2023-09-12T08:08:01;62.67;;;48.70;;
52210;SDS011;38179;52.756;6.906;2023-09-12T08:10:28;63.92;;;48.85;;
52210;SDS011;38179;52.756;6.906;2023-09-12T08:12:54;62.97;;;49.72;;
52210;SDS011;38179;52.756;6.906;2023-09-12T08:15:20;66.75;;;50.10;;
52210;SDS011;38179;52.756;6.906;2023-09-12T08:17:46;65.38;;;50.17;;
52210;SDS011;38179;52.756;6.906;2023-09-12T08:20:16;61.42;;;49.50;;
52210;SDS011;38179;52.756;6.906;2023-09-12T08:22:46;68.05;;;50.95;;
52210;SDS011;38179;52.756;6.906;2023-09-12T08:25:12;61.03;;;48.03;;
52210;SDS011;38179;52.756;6.906;2023-09-12T08:27:39;64.47;;;50.22;;
52210;SDS011;38179;52.756;6.906;2023-09-12T08:30:07;64.07;;;50.55;;
52210;SDS011;38179;52.756;6.906;2023-09-12T08:32:33;62.75;;;49.92;;
52210;SDS011;38179;52.756;6.906;2023-09-12T08:34:59;59.20;;;48.30;;
52210;SDS011;38179;52.756;6.906;2023-09-12T08:37:25;63.35;;;49.50;;
52210;SDS011;38179;52.756;6.906;2023-09-12T08:39:52;63.20;;;49.50;;
52210;SDS011;38179;52.756;6.906;2023-09-12T08:42:25;64.78;;;49.45;;
52210;SDS011;38179;52.756;6.906;2023-09-12T08:44:55;61.95;;;49.58;;
52210;SDS011;38179;52.756;6.906;2023-09-12T08:49:50;61.78;;;47.45;;
52210;SDS011;38179;52.756;6.906;2023-09-12T08:52:16;62.08;;;47.90;;
52210;SDS011;38179;52.756;6.906;2023-09-12T08:54:42;57.05;;;48.17;;
52210;SDS011;38179;52.756;6.906;2023-09-12T08:57:07;53.38;;;46.00;;
52210;SDS011;38179;52.756;6.906;2023-09-12T08:59:38;53.88;;;46.10;;
52210;SDS011;38179;52.756;6.906;2023-09-12T09:02:07;55.58;;;44.33;;
52210;SDS011;38179;52.756;6.906;2023-09-12T09:04:34;56.75;;;45.05;;
52210;SDS011;38179;52.756;6.906;2023-09-12T09:07:03;48.13;;;41.15;;
52210;SDS011;38179;52.756;6.906;2023-09-12T09:09:30;47.90;;;42.65;;
52210;SDS011;38179;52.756;6.906;2023-09-12T09:11:57;52.42;;;43.28;;
52210;SDS011;38179;52.756;6.906;2023-09-12T09:14:23;48.15;;;43.03;;
52210;SDS011;38179;52.756;6.906;2023-09-12T09:16:49;50.28;;;42.67;;
52210;SDS011;38179;52.756;6.906;2023-09-12T09:19:16;48.17;;;42.17;;
52210;SDS011;38179;52.756;6.906;2023-09-12T09:21:43;55.88;;;46.42;;
52210;SDS011;38179;52.756;6.906;2023-09-12T09:24:10;52.15;;;44.15;;
52210;SDS011;38179;52.756;6.906;2023-09-12T09:26:50;50.10;;;43.00;;
52210;SDS011;38179;52.756;6.906;2023-09-12T09:29:24;48.72;;;42.53;;
52210;SDS011;38179;52.756;6.906;2023-09-12T09:31:50;48.63;;;43.00;;
52210;SDS011;38179;52.756;6.906;2023-09-12T09:34:21;47.00;;;41.88;;
52210;SDS011;38179;52.756;6.906;2023-09-12T09:36:52;47.35;;;42.13;;
52210;SDS011;38179;52.756;6.906;2023-09-12T09:39:21;44.63;;;39.95;;
52210;SDS011;38179;52.756;6.906;2023-09-12T09:41:54;46.03;;;40.97;;
52210;SDS011;38179;52.756;6.906;2023-09-12T09:44:25;44.17;;;39.65;;
52210;SDS011;38179;52.756;6.906;2023-09-12T09:46:55;46.65;;;41.58;;
52210;SDS011;38179;52.756;6.906;2023-09-12T09:49:27;46.55;;;41.72;;
52210;SDS011;38179;52.756;6.906;2023-09-12T09:51:59;46.92;;;41.83;;
52210;SDS011;38179;52.756;6.906;2023-09-12T09:54:28;46.38;;;41.47;;
52210;SDS011;38179;52.756;6.906;2023-09-12T09:56:54;48.03;;;42.97;;
52210;SDS011;38179;52.756;6.906;2023-09-12T09:59:22;50.40;;;43.70;;
52210;SDS011;38179;52.756;6.906;2023-09-12T10:01:56;47.67;;;42.63;;
52210;SDS011;38179;52.756;6.906;2023-09-12T10:04:24;49.22;;;44.10;;
52210;SDS011;38179;52.756;6.906;2023-09-12T10:09:19;48.38;;;43.25;;
52210;SDS011;38179;52.756;6.906;2023-09-12T10:11:51;46.97;;;41.55;;
52210;SDS011;38179;52.756;6.906;2023-09-12T10:14:20;46.85;;;41.75;;
52210;SDS011;38179;52.756;6.906;2023-09-12T10:16:48;46.40;;;41.53;;
52210;SDS011;38179;52.756;6.906;2023-09-12T10:22:39;45.08;;;40.47;;
52210;SDS011;38179;52.756;6.906;2023-09-12T10:24:53;43.55;;;38.95;;
52210;SDS011;38179;52.756;6.906;2023-09-12T10:27:21;45.10;;;40.30;;
52210;SDS011;38179;52.756;6.906;2023-09-12T10:29:49;42.63;;;38.13;;
52210;SDS011;38179;52.756;6.906;2023-09-12T10:32:18;43.60;;;39.30;;
52210;SDS011;38179;52.756;6.906;2023-09-12T10:34:47;44.42;;;38.75;;
52210;SDS011;38179;52.756;6.906;2023-09-12T10:37:17;41.08;;;36.78;;
52210;SDS011;38179;52.756;6.906;2023-09-12T10:39:50;44.25;;;38.97;;
52210;SDS011;38179;52.756;6.906;2023-09-12T10:44:45;42.17;;;37.97;;
52210;SDS011;38179;52.756;6.906;2023-09-12T10:47:12;41.67;;;37.10;;
52210;SDS011;38179;52.756;6.906;2023-09-12T10:49:39;40.75;;;36.70;;
52210;SDS011;38179;52.756;6.906;2023-09-12T10:52:08;41.13;;;37.13;;
52210;SDS011;38179;52.756;6.906;2023-09-12T10:54:38;41.83;;;37.70;;
52210;SDS011;38179;52.756;6.906;2023-09-12T10:57:11;42.75;;;38.35;;
52210;SDS011;38179;52.756;6.906;2023-09-12T11:02:28;43.78;;;39.45;;
52210;SDS011;38179;52.756;6.906;2023-09-12T11:05:34;41.72;;;37.72;;
52210;SDS011;38179;52.756;6.906;2023-09-12T11:07:59;43.13;;;38.72;;
52210;SDS011;38179;52.756;6.906;2023-09-12T11:10:26;40.40;;;36.40;;
52210;SDS011;38179;52.756;6.906;2023-09-12T11:12:54;40.85;;;36.88;;
52210;SDS011;38179;52.756;6.906;2023-09-12T11:15:25;40.85;;;36.72;;
52210;SDS011;38179;52.756;6.906;2023-09-12T11:18:04;38.17;;;34.33;;
52210;SDS011;38179;52.756;6.906;2023-09-12T11:20:50;41.42;;;37.35;;
52210;SDS011;38179;52.756;6.906;2023-09-12T11:23:18;39.55;;;35.65;;
52210;SDS011;38179;52.756;6.906;2023-09-12T11:25:44;41.47;;;37.47;;
52210;SDS011;38179;52.756;6.906;2023-09-12T11:28:10;40.05;;;36.25;;
52210;SDS011;38179;52.756;6.906;2023-09-12T11:30:36;40.42;;;36.28;;
52210;SDS011;38179;52.756;6.906;2023-09-12T11:33:22;40.50;;;36.60;;
52210;SDS011;38179;52.756;6.906;2023-09-12T11:35:52;40.57;;;36.77;;
52210;SDS011;38179;52.756;6.906;2023-09-12T11:38:26;41.38;;;37.13;;
52210;SDS011;38179;52.756;6.906;2023-09-12T11:40:57;40.88;;;37.17;;
52210;SDS011;38179;52.756;6.906;2023-09-12T11:43:25;39.08;;;35.15;;
52210;SDS011;38179;52.756;6.906;2023-09-12T11:45:52;39.92;;;36.08;;
52210;SDS011;38179;52.756;6.906;2023-09-12T11:48:20;39.35;;;35.65;;
52210;SDS011;38179;52.756;6.906;2023-09-12T11:50:51;40.00;;;36.30;;
52210;SDS011;38179;52.756;6.906;2023-09-12T11:53:22;40.33;;;36.47;;
52210;SDS011;38179;52.756;6.906;2023-09-12T11:55:51;39.92;;;35.83;;
52210;SDS011;38179;52.756;6.906;2023-09-12T11:58:19;41.15;;;37.17;;
52210;SDS011;38179;52.756;6.906;2023-09-12T12:00:47;39.67;;;35.88;;
52210;SDS011;38179;52.756;6.906;2023-09-12T12:03:15;38.63;;;34.97;;
52210;SDS011;38179;52.756;6.906;2023-09-12T12:05:41;41.28;;;37.10;;
52210;SDS011;38179;52.756;6.906;2023-09-12T12:08:08;38.35;;;34.65;;
52210;SDS011;38179;52.756;6.906;2023-09-12T12:10:35;39.30;;;35.60;;
52210;SDS011;38179;52.756;6.906;2023-09-12T12:13:03;41.27;;;37.17;;
52210;SDS011;38179;52.756;6.906;2023-09-12T12:15:29;39.47;;;35.78;;
52210;SDS011;38179;52.756;6.906;2023-09-12T12:17:55;40.95;;;37.08;;
52210;SDS011;38179;52.756;6.906;2023-09-12T12:20:21;40.70;;;36.67;;
52210;SDS011;38179;52.756;6.906;2023-09-12T12:22:47;40.30;;;36.40;;
52210;SDS011;38179;52.756;6.906;2023-09-12T12:25:14;40.47;;;36.75;;
52210;SDS011;38179;52.756;6.906;2023-09-12T12:27:41;39.95;;;36.20;;
52210;SDS011;38179;52.756;6.906;2023-09-12T12:30:08;39.08;;;35.45;;
52210;SDS011;38179;52.756;6.906;2023-09-12T12:32:39;37.88;;;34.38;;
52210;SDS011;38179;52.756;6.906;2023-09-12T12:35:06;39.17;;;35.45;;
52210;SDS011;38179;52.756;6.906;2023-09-12T12:37:32;38.05;;;34.63;;
52210;SDS011;38179;52.756;6.906;2023-09-12T12:40:00;40.10;;;36.13;;
52210;SDS011;38179;52.756;6.906;2023-09-12T12:42:37;38.63;;;35.05;;
52210;SDS011;38179;52.756;6.906;2023-09-12T12:45:14;36.42;;;33.20;;
52210;SDS011;38179;52.756;6.906;2023-09-12T12:47:41;35.92;;;32.53;;
52210;SDS011;38179;52.756;6.906;2023-09-12T12:50:12;37.20;;;33.57;;
52210;SDS011;38179;52.756;6.906;2023-09-12T12:52:40;38.50;;;34.90;;
52210;SDS011;38179;52.756;6.906;2023-09-12T12:55:08;37.65;;;33.92;;
52210;SDS011;38179;52.756;6.906;2023-09-12T13:00:02;36.55;;;33.03;;
52210;SDS011;38179;52.756;6.906;2023-09-12T13:02:37;36.53;;;33.13;;
52210;SDS011;38179;52.756;6.906;2023-09-12T13:05:04;35.60;;;32.53;;
52210;SDS011;38179;52.756;6.906;2023-09-12T13:07:35;37.08;;;33.47;;
52210;SDS011;38179;52.756;6.906;2023-09-12T13:10:02;35.55;;;32.35;;
52210;SDS011;38179;52.756;6.906;2023-09-12T13:12:29;34.80;;;31.57;;
52210;SDS011;38179;52.756;6.906;2023-09-12T13:14:55;36.72;;;33.40;;
52210;SDS011;38179;52.756;6.906;2023-09-12T13:17:23;34.05;;;30.75;;
52210;SDS011;38179;52.756;6.906;2023-09-12T13:19:49;33.38;;;30.48;;
52210;SDS011;38179;52.756;6.906;2023-09-12T13:22:15;32.50;;;29.52;;
52210;SDS011;38179;52.756;6.906;2023-09-12T13:24:40;31.75;;;28.95;;
52210;SDS011;38179;52.756;6.906;2023-09-12T13:27:06;32.78;;;29.77;;
52210;SDS011;38179;52.756;6.906;2023-09-12T13:29:32;33.67;;;30.55;;
52210;SDS011;38179;52.756;6.906;2023-09-12T13:31:58;33.22;;;29.98;;
52210;SDS011;38179;52.756;6.906;2023-09-12T13:34:24;34.42;;;31.20;;
52210;SDS011;38179;52.756;6.906;2023-09-12T13:36:50;30.50;;;28.00;;
52210;SDS011;38179;52.756;6.906;2023-09-12T13:39:17;30.23;;;27.73;;
52210;SDS011;38179;52.756;6.906;2023-09-12T13:41:43;29.60;;;27.15;;
52210;SDS011;38179;52.756;6.906;2023-09-12T13:44:10;31.92;;;29.23;;
52210;SDS011;38179;52.756;6.906;2023-09-12T13:46:36;32.78;;;30.00;;
52210;SDS011;38179;52.756;6.906;2023-09-12T13:49:02;32.03;;;29.08;;
52210;SDS011;38179;52.756;6.906;2023-09-12T13:51:28;32.20;;;29.33;;
52210;SDS011;38179;52.756;6.906;2023-09-12T13:53:58;32.65;;;29.48;;
52210;SDS011;38179;52.756;6.906;2023-09-12T13:56:24;32.75;;;29.92;;
52210;SDS011;38179;52.756;6.906;2023-09-12T13:58:50;31.25;;;28.70;;
52210;SDS011;38179;52.756;6.906;2023-09-12T14:03:42;29.88;;;27.27;;
52210;SDS011;38179;52.756;6.906;2023-09-12T14:06:08;31.30;;;28.38;;
52210;SDS011;38179;52.756;6.906;2023-09-12T14:08:34;30.67;;;27.75;;
52210;SDS011;38179;52.756;6.906;2023-09-12T14:11:00;28.55;;;26.25;;
52210;SDS011;38179;52.756;6.906;2023-09-12T14:13:26;29.92;;;27.40;;
52210;SDS011;38179;52.756;6.906;2023-09-12T14:15:51;29.63;;;27.23;;
52210;SDS011;38179;52.756;6.906;2023-09-12T14:18:17;30.10;;;27.60;;
52210;SDS011;38179;52.756;6.906;2023-09-12T14:20:44;29.30;;;26.80;;
52210;SDS011;38179;52.756;6.906;2023-09-12T14:23:11;30.17;;;27.58;;
52210;SDS011;38179;52.756;6.906;2023-09-12T14:25:40;30.10;;;27.17;;
52210;SDS011;38179;52.756;6.906;2023-09-12T14:28:06;28.85;;;26.15;;
52210;SDS011;38179;52.756;6.906;2023-09-12T14:30:32;29.25;;;26.83;;
52210;SDS011;38179;52.756;6.906;2023-09-12T14:33:02;27.60;;;25.30;;
52210;SDS011;38179;52.756;6.906;2023-09-12T14:35:29;26.50;;;24.27;;
52210;SDS011;38179;52.756;6.906;2023-09-12T14:37:55;25.58;;;23.35;;
52210;SDS011;38179;52.756;6.906;2023-09-12T14:40:21;26.10;;;24.00;;
52210;SDS011;38179;52.756;6.906;2023-09-12T14:42:48;26.93;;;24.67;;
52210;SDS011;38179;52.756;6.906;2023-09-12T14:45:14;26.42;;;24.38;;
52210;SDS011;38179;52.756;6.906;2023-09-12T14:47:41;25.85;;;23.73;;
52210;SDS011;38179;52.756;6.906;2023-09-12T14:50:07;24.92;;;23.02;;
52210;SDS011;38179;52.756;6.906;2023-09-12T14:52:34;26.60;;;24.33;;